createdAt,value
2023-02-28T06:02:17.666Z,13.88
2023-02-28T06:05:21.459Z,14.65
2023-02-28T06:08:24.769Z,12.07
2023-02-28T06:11:29.395Z,15.32
2023-02-28T06:14:34.042Z,14.17
2023-02-28T06:17:41.434Z,14.80
2023-02-28T06:20:44.604Z,14.60
2023-02-28T06:23:47.820Z,14.00
2023-02-28T06:26:51.339Z,14.85
2023-02-28T06:29:56.876Z,13.23
2023-02-28T06:33:01.577Z,13.52
2023-02-28T06:36:08.499Z,13.48
2023-02-28T06:39:14.222Z,12.30
2023-02-28T06:42:17.621Z,12.43
2023-02-28T06:45:20.888Z,19.63
2023-02-28T06:48:26.101Z,13.52
2023-02-28T06:51:30.172Z,12.38
2023-02-28T06:54:33.444Z,12.75
2023-02-28T06:57:41.875Z,10.50
2023-02-28T07:04:09.364Z,15.82
2023-02-28T07:07:13.211Z,12.98
2023-02-28T07:10:20.235Z,14.45
2023-02-28T07:13:24.683Z,13.90
2023-02-28T07:16:28.060Z,14.63
2023-02-28T07:19:32.673Z,14.93
2023-02-28T07:22:36.154Z,15.38
2023-02-28T07:25:39.454Z,14.13
2023-02-28T07:28:44.563Z,16.55
2023-02-28T07:31:48.191Z,10.30
2023-02-28T07:34:52.696Z,14.93
2023-02-28T07:37:55.837Z,14.30
2023-02-28T07:40:58.943Z,14.25
2023-02-28T07:44:04.214Z,12.77
2023-02-28T07:47:09.693Z,11.53
2023-02-28T07:50:17.384Z,15.38
2023-02-28T07:53:21.553Z,11.93
2023-02-28T07:56:25.089Z,13.75
2023-02-28T07:59:31.891Z,15.10
2023-02-28T08:02:35.292Z,14.13
2023-02-28T08:05:45.524Z,12.65
2023-02-28T08:09:03.704Z,15.55
2023-02-28T08:12:07.185Z,12.40
2023-02-28T08:15:14.967Z,11.43
2023-02-28T08:18:18.080Z,14.63
2023-02-28T08:21:23.777Z,13.43
2023-02-28T08:24:27.197Z,14.88
2023-02-28T08:27:30.251Z,15.45
2023-02-28T08:30:33.914Z,16.17
2023-02-28T08:33:37.277Z,13.27
2023-02-28T08:36:42.457Z,13.70
2023-02-28T08:39:46.024Z,14.60
2023-02-28T08:42:51.616Z,15.98
2023-02-28T08:45:55.501Z,12.88
2023-02-28T08:49:01.081Z,14.10
2023-02-28T08:52:08.918Z,14.23
2023-02-28T08:55:13.634Z,15.52
2023-02-28T08:58:17.371Z,16.08
2023-02-28T09:01:22.868Z,13.95
2023-02-28T09:04:30.315Z,16.33
2023-02-28T09:07:40.593Z,15.63
2023-02-28T09:10:43.668Z,16.80
2023-02-28T09:13:48.257Z,17.80
2023-02-28T09:16:52.455Z,17.33
2023-02-28T09:19:56.570Z,16.00
2023-02-28T09:23:01.388Z,15.43
2023-02-28T09:26:06.097Z,16.23
2023-02-28T09:29:13.037Z,13.85
2023-02-28T09:32:20.392Z,15.55
2023-02-28T09:35:25.379Z,15.20
2023-02-28T09:38:30.252Z,16.55
2023-02-28T09:41:48.449Z,14.65
2023-02-28T09:44:59.427Z,16.30
2023-02-28T09:48:20.903Z,16.13
2023-02-28T09:51:55.944Z,15.97
2023-02-28T09:55:23.411Z,18.25
2023-02-28T09:58:45.128Z,14.95
2023-02-28T10:02:05.681Z,16.67
2023-02-28T10:05:28.560Z,16.77
2023-02-28T10:08:47.537Z,14.93
2023-02-28T10:11:59.080Z,19.02
2023-02-28T10:15:04.417Z,15.82
2023-02-28T10:18:42.055Z,16.98
2023-02-28T10:22:11.040Z,15.95
2023-02-28T10:25:22.888Z,19.00
2023-02-28T10:28:32.794Z,17.20
2023-02-28T10:31:41.217Z,15.70
2023-02-28T10:34:51.137Z,15.30
2023-02-28T10:37:58.745Z,18.48
2023-02-28T10:41:10.772Z,18.03
2023-02-28T10:44:33.477Z,18.75
2023-02-28T10:47:47.369Z,19.05
2023-02-28T10:51:44.555Z,16.45
2023-02-28T10:55:23.896Z,17.88
2023-02-28T10:58:36.465Z,15.80
2023-02-28T11:01:46.220Z,17.58
2023-02-28T11:04:49.955Z,19.60
2023-02-28T11:07:55.148Z,19.13
2023-02-28T11:11:01.486Z,15.43
2023-02-28T11:14:07.620Z,14.40
2023-02-28T11:17:29.549Z,17.85
2023-02-28T11:20:37.276Z,14.40
2023-02-28T11:23:43.619Z,20.65
2023-02-28T11:26:49.707Z,19.27
2023-02-28T11:30:01.235Z,16.80
2023-02-28T11:33:30.329Z,19.63
2023-02-28T11:36:35.477Z,17.98
2023-02-28T11:40:26.477Z,14.40
2023-02-28T11:43:50.575Z,20.98
2023-02-28T11:47:04.034Z,12.90
2023-02-28T11:50:34.041Z,12.65
2023-02-28T11:54:12.158Z,15.73
2023-02-28T11:57:34.119Z,20.55
2023-02-28T12:00:48.398Z,18.95
2023-02-28T12:04:05.161Z,18.33
2023-02-28T12:07:17.932Z,14.90
2023-02-28T12:10:28.888Z,17.08
2023-02-28T12:13:46.973Z,17.65
2023-02-28T12:17:05.891Z,18.15
2023-02-28T12:20:20.094Z,20.20
2023-02-28T12:24:04.872Z,20.30
2023-02-28T12:27:15.003Z,21.73
2023-02-28T12:30:24.188Z,19.10
2023-02-28T12:33:35.050Z,19.42
2023-02-28T12:36:39.498Z,23.30
2023-02-28T12:39:50.920Z,15.73
2023-02-28T12:43:02.272Z,19.55
2023-02-28T12:46:14.315Z,19.58
2023-02-28T12:49:26.033Z,20.95
2023-02-28T12:52:38.473Z,19.90
2023-02-28T12:55:49.840Z,23.52
2023-02-28T12:59:08.214Z,20.33
2023-02-28T13:02:56.226Z,18.50
2023-02-28T13:06:24.919Z,18.85
2023-02-28T13:09:47.583Z,18.50
2023-02-28T13:12:52.750Z,17.02
2023-02-28T13:16:06.260Z,20.85
2023-02-28T13:19:14.530Z,21.02
2023-02-28T13:22:20.801Z,18.30
2023-02-28T13:25:55.635Z,18.20
2023-02-28T13:29:24.293Z,16.95
2023-02-28T13:32:37.623Z,17.55
2023-02-28T13:35:47.355Z,15.63
2023-02-28T13:38:52.749Z,19.45
2023-02-28T13:41:58.770Z,16.93
2023-02-28T13:45:28.294Z,21.13
2023-02-28T13:48:33.115Z,20.88
2023-02-28T13:51:47.899Z,20.05
2023-02-28T13:55:00.211Z,21.25
2023-02-28T13:58:19.363Z,26.83
2023-02-28T14:02:01.276Z,22.08
2023-02-28T14:08:24.952Z,23.40
2023-02-28T14:11:32.336Z,22.80
2023-02-28T14:14:59.223Z,20.53
2023-02-28T14:18:13.521Z,21.08
2023-02-28T14:21:26.432Z,22.33
2023-02-28T14:24:53.272Z,22.15
2023-02-28T14:28:07.067Z,19.50
2023-02-28T14:31:13.628Z,20.03
2023-02-28T14:34:34.283Z,20.52
2023-02-28T14:37:42.110Z,24.92
2023-02-28T14:40:51.326Z,20.15
2023-02-28T14:43:57.906Z,22.70
2023-02-28T14:47:07.719Z,22.27
2023-02-28T14:50:25.757Z,19.85
2023-02-28T14:53:37.601Z,21.73
2023-02-28T14:56:41.927Z,22.60
2023-02-28T14:59:45.634Z,21.83
2023-02-28T15:02:50.073Z,26.80
2023-02-28T15:05:55.173Z,21.30
2023-02-28T15:09:17.520Z,22.58
2023-02-28T15:12:21.506Z,21.80
2023-02-28T15:15:35.918Z,22.63
2023-02-28T15:18:50.279Z,21.13
2023-02-28T15:21:58.031Z,19.70
2023-02-28T15:25:05.209Z,22.20
2023-02-28T15:28:17.115Z,21.50
2023-02-28T15:31:25.596Z,24.67
2023-02-28T15:34:43.058Z,21.63
2023-02-28T15:37:50.053Z,24.83
2023-02-28T15:40:56.402Z,23.45
2023-02-28T15:44:20.032Z,22.38
2023-02-28T15:47:25.506Z,23.05
2023-02-28T15:50:31.916Z,17.40
2023-02-28T15:53:38.933Z,20.92
2023-02-28T15:56:46.836Z,24.70
2023-02-28T15:59:54.796Z,21.75
2023-02-28T16:02:57.956Z,26.02
2023-02-28T16:06:24.119Z,22.57
2023-02-28T16:09:28.395Z,22.65
2023-02-28T16:12:37.343Z,22.92
2023-02-28T16:15:44.718Z,21.83
2023-02-28T16:18:48.455Z,21.77
2023-02-28T16:21:52.264Z,23.57
2023-02-28T16:24:55.349Z,23.08
2023-02-28T16:28:01.453Z,26.20
2023-02-28T16:31:08.970Z,24.98
2023-02-28T16:34:12.207Z,25.23
2023-02-28T16:37:17.086Z,22.87
2023-02-28T16:40:25.158Z,24.23
2023-02-28T16:43:34.820Z,24.77
2023-02-28T16:46:38.525Z,21.70
